Time;durP1;ratioP1;P1;durP2;ratioP2;P2;SDS_P1;SDS_P2;PMS_P1;PMS_P2;Temp;Humidity;BMP_temperature;BMP_pressure;BME280_temperature;BME280_humidity;BME280_pressure;Samples;Min_cycle;Max_cycle;Signal;HPM_P1;HPM_P2
2022/08/15 00:00:06;;;;;;;;;;;23.90;77.00;;;;;;5094585;28;19969;-62
2022/08/15 00:02:32;;;;;;;;;;;23.90;77.00;;;;;;5094483;28;19946;-62
2022/08/15 00:04:57;;;;;;;;;;;23.90;77.00;;;;;;5076545;28;19908;-62
2022/08/15 00:07:23;;;;;;;;;;;23.90;77.00;;;;;;5094328;28;19915;-62
2022/08/15 00:09:48;;;;;;;;;;;23.90;77.00;;;;;;5076591;28;19908;-62
2022/08/15 00:12:14;;;;;;;;;;;23.90;77.00;;;;;;5094802;28;19930;-62
2022/08/15 00:14:39;;;;;;;;;;;23.90;77.00;;;;;;5094415;28;19916;-62
2022/08/15 00:17:09;;;;;;;;;;;23.90;77.00;;;;;;5094194;28;19915;-62
2022/08/15 00:19:36;;;;;;;;;;;23.90;77.10;;;;;;5094437;28;19941;-62
2022/08/15 00:22:06;;;;;;;;;;;23.90;77.00;;;;;;5094335;28;20010;-63
2022/08/15 00:24:34;;;;;;;;;;;23.90;77.00;;;;;;5093959;28;20374;-62
2022/08/15 00:27:00;;;;;;;;;;;23.90;77.00;;;;;;5094427;28;19957;-62
2022/08/15 00:29:27;;;;;;;;;;;23.90;77.00;;;;;;5094360;28;19912;-62
2022/08/15 00:31:53;;;;;;;;;;;23.90;77.00;;;;;;5093959;28;19915;-63
2022/08/15 00:34:20;;;;;;;;;;;23.90;77.00;;;;;;5094227;28;20026;-62
2022/08/15 00:36:48;;;;;;;;;;;23.80;77.00;;;;;;5093964;28;20002;-62
2022/08/15 00:39:15;;;;;;;;;;;23.90;77.00;;;;;;5076140;28;19908;-62
2022/08/15 00:41:41;;;;;;;;;;;23.90;77.00;;;;;;5076113;28;20278;-62
2022/08/15 00:44:13;;;;;;;;;;;23.90;77.00;;;;;;5093871;28;19909;-62
2022/08/15 00:46:41;;;;;;;;;;;23.90;77.00;;;;;;5076052;28;19945;-62
2022/08/15 00:49:07;;;;;;;;;;;23.80;76.90;;;;;;5093703;28;19954;-62
2022/08/15 00:51:33;;;;;;;;;;;23.90;77.00;;;;;;5093736;28;19908;-61
2022/08/15 00:54:02;;;;;;;;;;;23.90;77.00;;;;;;5094049;28;19923;-61
2022/08/15 00:56:29;;;;;;;;;;;23.90;77.00;;;;;;5075949;28;19916;-62
2022/08/15 00:58:55;;;;;;;;;;;23.90;77.00;;;;;;5093977;28;19995;-62
2022/08/15 01:01:22;;;;;;;;;;;23.90;77.00;;;;;;5094389;28;19985;-61
2022/08/15 01:03:48;;;;;;;;;;;23.90;77.00;;;;;;5094424;28;19920;-62
2022/08/15 01:06:14;;;;;;;;;;;23.90;77.00;;;;;;5093733;28;19908;-62
2022/08/15 01:08:41;;;;;;;;;;;23.90;77.00;;;;;;5093647;28;19912;-62
2022/08/15 01:11:11;;;;;;;;;;;23.90;77.00;;;;;;5093886;28;20355;-62
2022/08/15 01:13:36;;;;;;;;;;;23.90;77.00;;;;;;5093534;28;19981;-62
2022/08/15 01:16:02;;;;;;;;;;;23.90;77.00;;;;;;5093943;28;20354;-62
2022/08/15 01:18:28;;;;;;;;;;;23.90;77.00;;;;;;5093633;28;19915;-62
2022/08/15 01:20:55;;;;;;;;;;;23.90;77.00;;;;;;5093867;28;19908;-61
2022/08/15 01:23:39;;;;;;;;;;;23.90;77.00;;;;;;5094151;28;19991;-61
2022/08/15 01:26:06;;;;;;;;;;;23.90;77.00;;;;;;5093445;28;20355;-62
2022/08/15 01:28:37;;;;;;;;;;;23.90;77.00;;;;;;5093828;28;20346;-62
2022/08/15 01:31:10;;;;;;;;;;;23.90;77.00;;;;;;5075713;28;19915;-62
2022/08/15 01:33:39;;;;;;;;;;;23.90;77.00;;;;;;5093300;28;19912;-62
2022/08/15 01:36:05;;;;;;;;;;;23.90;77.00;;;;;;5095545;28;19919;-62
2022/08/15 01:38:33;;;;;;;;;;;23.90;77.00;;;;;;5097004;28;19983;-62
2022/08/15 01:40:58;;;;;;;;;;;23.90;77.00;;;;;;5079099;28;20355;-62
2022/08/15 01:43:26;;;;;;;;;;;23.90;77.00;;;;;;5079147;28;19908;-62
2022/08/15 01:45:53;;;;;;;;;;;23.90;77.00;;;;;;5096893;28;19912;-62
2022/08/15 01:48:28;;;;;;;;;;;23.90;77.00;;;;;;5097131;28;19908;-62
2022/08/15 01:50:56;;;;;;;;;;;23.90;77.00;;;;;;5079032;28;19908;-61
2022/08/15 01:53:29;;;;;;;;;;;23.90;77.00;;;;;;5097048;28;19919;-61
2022/08/15 01:55:58;;;;;;;;;;;23.90;77.00;;;;;;5096984;28;19994;-62
2022/08/15 01:58:24;;;;;;;;;;;23.90;77.00;;;;;;5096880;28;19911;-62
2022/08/15 02:00:57;;;;;;;;;;;23.90;77.00;;;;;;5097126;28;20248;-62
2022/08/15 02:03:33;;;;;;;;;;;23.90;77.00;;;;;;5096671;28;20363;-62
2022/08/15 02:06:09;;;;;;;;;;;23.90;77.00;;;;;;5096504;28;19912;-62
2022/08/15 02:08:34;;;;;;;;;;;23.90;77.00;;;;;;5096408;28;19908;-62
2022/08/15 02:11:00;;;;;;;;;;;23.90;77.00;;;;;;5096764;28;19999;-62
2022/08/15 02:13:26;;;;;;;;;;;23.90;77.00;;;;;;5096562;28;20438;-63
2022/08/15 02:15:52;;;;;;;;;;;23.90;77.00;;;;;;5096408;28;20378;-61
2022/08/15 02:18:17;;;;;;;;;;;23.90;77.00;;;;;;5096380;28;19912;-62
2022/08/15 02:20:43;;;;;;;;;;;23.90;77.00;;;;;;5078148;28;20320;-62
2022/08/15 02:23:08;;;;;;;;;;;23.90;77.00;;;;;;5096194;28;19920;-62
2022/08/15 02:25:35;;;;;;;;;;;23.90;77.00;;;;;;5078268;28;20359;-62
2022/08/15 02:28:00;;;;;;;;;;;23.90;77.00;;;;;;5096472;28;19960;-62
2022/08/15 02:30:27;;;;;;;;;;;23.90;77.00;;;;;;5078230;28;19999;-61
2022/08/15 02:32:52;;;;;;;;;;;23.90;77.00;;;;;;5096041;28;19912;-61
2022/08/15 02:35:18;;;;;;;;;;;23.90;77.00;;;;;;5078253;28;20321;-61
2022/08/15 02:37:44;;;;;;;;;;;23.90;77.00;;;;;;5095987;28;19908;-62
2022/08/15 02:40:11;;;;;;;;;;;23.90;77.00;;;;;;5095915;28;20351;-61
2022/08/15 02:42:38;;;;;;;;;;;23.90;77.00;;;;;;5096199;28;19908;-62
2022/08/15 02:45:07;;;;;;;;;;;23.90;77.00;;;;;;5096396;28;19974;-62
2022/08/15 02:47:34;;;;;;;;;;;23.90;77.00;;;;;;5095020;28;19917;-62
2022/08/15 02:50:01;;;;;;;;;;;23.90;77.00;;;;;;5095736;28;19912;-62
2022/08/15 02:52:27;;;;;;;;;;;24.00;77.10;;;;;;5077703;28;19915;-61
2022/08/15 02:54:53;;;;;;;;;;;24.00;77.10;;;;;;5077796;28;19936;-62
2022/08/15 02:57:18;;;;;;;;;;;23.90;77.00;;;;;;5095917;28;20363;-62
2022/08/15 02:59:45;;;;;;;;;;;23.90;77.00;;;;;;5095790;28;20006;-62
2022/08/15 03:02:10;;;;;;;;;;;23.90;77.00;;;;;;5095467;28;20418;-62
2022/08/15 03:04:38;;;;;;;;;;;23.90;77.00;;;;;;5095815;28;19996;-62
2022/08/15 03:07:04;;;;;;;;;;;24.00;77.00;;;;;;5095368;28;20347;-62
2022/08/15 03:09:31;;;;;;;;;;;23.90;77.00;;;;;;5094558;28;20200;-62
2022/08/15 03:11:57;;;;;;;;;;;23.90;77.00;;;;;;5095321;28;19908;-61
2022/08/15 03:14:23;;;;;;;;;;;23.90;77.00;;;;;;5095454;28;19912;-62
2022/08/15 03:16:49;;;;;;;;;;;23.90;77.00;;;;;;5095136;28;19912;-62
2022/08/15 03:19:19;;;;;;;;;;;23.90;77.00;;;;;;5095439;28;19909;-62
2022/08/15 03:21:46;;;;;;;;;;;24.00;77.10;;;;;;5077198;28;20015;-62
2022/08/15 03:24:12;;;;;;;;;;;24.00;77.10;;;;;;5095673;28;20358;-61
2022/08/15 03:26:38;;;;;;;;;;;23.90;77.00;;;;;;5095284;28;19915;-62
2022/08/15 03:29:04;;;;;;;;;;;24.00;77.00;;;;;;5094884;28;19995;-61
2022/08/15 03:31:30;;;;;;;;;;;24.00;77.00;;;;;;5076859;28;19925;-62
2022/08/15 03:33:56;;;;;;;;;;;24.00;77.00;;;;;;5095093;28;20121;-61
2022/08/15 03:36:22;;;;;;;;;;;23.90;77.00;;;;;;5094794;28;20052;-62
2022/08/15 03:38:47;;;;;;;;;;;24.00;77.10;;;;;;5095036;28;19909;-61
2022/08/15 03:41:14;;;;;;;;;;;24.00;77.10;;;;;;5095280;28;19915;-62
2022/08/15 03:43:40;;;;;;;;;;;23.90;77.00;;;;;;5094692;28;20351;-62
2022/08/15 03:46:08;;;;;;;;;;;24.00;77.10;;;;;;5094834;28;19915;-62
2022/08/15 03:48:35;;;;;;;;;;;24.00;77.10;;;;;;5094525;28;19909;-62
2022/08/15 03:51:01;;;;;;;;;;;24.00;77.10;;;;;;5094732;28;19912;-62
2022/08/15 03:53:28;;;;;;;;;;;24.00;77.10;;;;;;5094360;28;19918;-62
2022/08/15 03:55:54;;;;;;;;;;;24.00;77.10;;;;;;5094430;28;19912;-62
2022/08/15 03:58:20;;;;;;;;;;;24.00;77.10;;;;;;5094217;28;19944;-62
2022/08/15 04:00:47;;;;;;;;;;;24.00;77.10;;;;;;5094229;28;19908;-62
2022/08/15 04:03:14;;;;;;;;;;;23.90;77.00;;;;;;5094482;28;19920;-62
2022/08/15 04:05:41;;;;;;;;;;;24.00;77.10;;;;;;5094547;28;19958;-62
2022/08/15 04:08:09;;;;;;;;;;;23.90;77.00;;;;;;5076299;28;20433;-62
2022/08/15 04:10:35;;;;;;;;;;;24.00;77.00;;;;;;5094358;28;19908;-62
2022/08/15 04:13:01;;;;;;;;;;;24.00;77.30;;;;;;5093963;28;20476;-62
2022/08/15 04:15:27;;;;;;;;;;;24.00;77.10;;;;;;5094617;28;19919;-62
2022/08/15 04:17:53;;;;;;;;;;;24.00;77.10;;;;;;5094395;28;19915;-62
2022/08/15 04:20:19;;;;;;;;;;;24.00;77.10;;;;;;5094320;28;19908;-62
2022/08/15 04:22:47;;;;;;;;;;;24.00;77.10;;;;;;5093965;28;19998;-62
2022/08/15 04:25:16;;;;;;;;;;;24.00;77.10;;;;;;5094283;28;19978;-62
2022/08/15 04:27:41;;;;;;;;;;;24.00;77.10;;;;;;5094183;28;20021;-61
2022/08/15 04:30:09;;;;;;;;;;;24.00;77.10;;;;;;5094209;28;19908;-62
2022/08/15 04:32:34;;;;;;;;;;;24.00;77.10;;;;;;5093754;28;19947;-62
2022/08/15 04:35:00;;;;;;;;;;;24.00;77.10;;;;;;5093842;28;19939;-62
2022/08/15 04:37:26;;;;;;;;;;;24.00;77.10;;;;;;5093703;28;19999;-61
2022/08/15 04:39:53;;;;;;;;;;;24.00;77.10;;;;;;5094052;28;19995;-62
2022/08/15 04:42:21;;;;;;;;;;;24.00;77.10;;;;;;5075794;28;20378;-61
2022/08/15 04:44:47;;;;;;;;;;;24.00;77.10;;;;;;5075751;28;20270;-62
2022/08/15 04:47:14;;;;;;;;;;;24.00;77.10;;;;;;5094182;28;19909;-62
2022/08/15 04:49:40;;;;;;;;;;;24.00;77.10;;;;;;5093499;28;20383;-61
2022/08/15 04:52:16;;;;;;;;;;;24.00;77.10;;;;;;5093590;28;20068;-62
2022/08/15 04:54:43;;;;;;;;;;;23.90;77.10;;;;;;5093889;28;19939;-62
2022/08/15 04:57:08;;;;;;;;;;;24.00;77.10;;;;;;5093856;28;19908;-62
2022/08/15 04:59:34;;;;;;;;;;;24.00;77.10;;;;;;5093795;28;19908;-61
2022/08/15 05:02:00;;;;;;;;;;;24.00;77.10;;;;;;5093561;28;19912;-61
2022/08/15 05:04:26;;;;;;;;;;;24.00;77.10;;;;;;5093613;28;20269;-61
2022/08/15 05:06:51;;;;;;;;;;;23.90;77.10;;;;;;5093788;28;20325;-62
2022/08/15 05:09:17;;;;;;;;;;;24.00;77.10;;;;;;5093793;28;19915;-62
2022/08/15 05:11:42;;;;;;;;;;;24.00;77.10;;;;;;5097062;28;19915;-62
2022/08/15 05:14:07;;;;;;;;;;;24.00;77.10;;;;;;5079376;28;19919;-62
2022/08/15 05:16:33;;;;;;;;;;;24.00;77.10;;;;;;5097316;28;20003;-62
2022/08/15 05:18:59;;;;;;;;;;;24.00;77.10;;;;;;5097590;28;19908;-61
2022/08/15 05:21:25;;;;;;;;;;;24.00;77.20;;;;;;5097390;28;19908;-62
2022/08/15 05:23:50;;;;;;;;;;;24.00;77.10;;;;;;5097422;28;19914;-62
2022/08/15 05:26:16;;;;;;;;;;;24.00;77.10;;;;;;5078646;28;19908;-62
2022/08/15 05:28:41;;;;;;;;;;;24.00;77.10;;;;;;5079105;28;19943;-62
2022/08/15 05:31:08;;;;;;;;;;;24.00;77.20;;;;;;5097126;28;19937;-62
2022/08/15 05:33:33;;;;;;;;;;;24.00;77.20;;;;;;5096712;28;19912;-62
2022/08/15 05:36:00;;;;;;;;;;;24.00;77.20;;;;;;5097426;28;20362;-62
2022/08/15 05:38:29;;;;;;;;;;;24.00;77.20;;;;;;5097196;28;20366;-62
2022/08/15 05:40:57;;;;;;;;;;;24.00;77.30;;;;;;5097114;28;19915;-62
2022/08/15 05:43:25;;;;;;;;;;;24.00;77.30;;;;;;5097091;28;19908;-62
2022/08/15 05:46:17;;;;;;;;;;;24.00;77.30;;;;;;5096701;28;19915;-62
2022/08/15 05:48:43;;;;;;;;;;;24.00;77.30;;;;;;5072725;28;20355;-62
2022/08/15 05:51:08;;;;;;;;;;;24.00;77.20;;;;;;5096593;28;19908;-62
2022/08/15 05:53:44;;;;;;;;;;;24.00;77.30;;;;;;5096918;28;19918;-61
2022/08/15 05:56:10;;;;;;;;;;;24.00;77.30;;;;;;5096688;28;19938;-62
2022/08/15 05:58:51;;;;;;;;;;;24.00;77.30;;;;;;5096755;28;20398;-62
2022/08/15 06:01:29;;;;;;;;;;;24.00;77.30;;;;;;5096504;28;19916;-62
2022/08/15 06:04:00;;;;;;;;;;;24.00;77.30;;;;;;5096701;28;20355;-62
2022/08/15 06:06:29;;;;;;;;;;;24.00;77.30;;;;;;5078337;28;20031;-62
2022/08/15 06:08:59;;;;;;;;;;;24.00;77.30;;;;;;5096215;28;20286;-62
2022/08/15 06:11:29;;;;;;;;;;;24.00;77.30;;;;;;5096362;28;20016;-62
2022/08/15 06:13:58;;;;;;;;;;;24.00;77.30;;;;;;5096019;28;19959;-62
2022/08/15 06:16:43;;;;;;;;;;;24.00;77.30;;;;;;5096100;28;20359;-62
2022/08/15 06:19:19;;;;;;;;;;;24.00;77.30;;;;;;5078258;28;19951;-62
2022/08/15 06:21:49;;;;;;;;;;;24.00;77.40;;;;;;5077034;28;19950;-62
2022/08/15 06:24:15;;;;;;;;;;;24.00;77.30;;;;;;5096245;28;19908;-62
2022/08/15 06:26:59;;;;;;;;;;;24.00;77.30;;;;;;5096101;28;19908;-62
2022/08/15 06:29:37;;;;;;;;;;;24.00;77.30;;;;;;5095926;28;19908;-62
2022/08/15 06:32:09;;;;;;;;;;;24.00;77.40;;;;;;5095697;28;19912;-62
2022/08/15 06:34:43;;;;;;;;;;;24.00;77.40;;;;;;5095867;28;20022;-62
2022/08/15 06:37:20;;;;;;;;;;;24.00;77.40;;;;;;5077853;28;19935;-62
2022/08/15 06:39:58;;;;;;;;;;;24.00;77.40;;;;;;5077861;28;19909;-62
2022/08/15 06:42:50;;;;;;;;;;;24.00;77.40;;;;;;5095726;28;19990;-62
2022/08/15 06:45:21;;;;;;;;;;;24.00;77.40;;;;;;5092353;28;19909;-62
2022/08/15 06:47:48;;;;;;;;;;;24.00;77.40;;;;;;5077628;28;19939;-62
2022/08/15 06:50:19;;;;;;;;;;;24.00;77.40;;;;;;5077413;28;19961;-62
2022/08/15 06:52:49;;;;;;;;;;;24.00;77.40;;;;;;5095588;28;19913;-62
2022/08/15 06:55:14;;;;;;;;;;;24.00;77.40;;;;;;5095435;28;20251;-62
2022/08/15 06:57:45;;;;;;;;;;;24.00;77.40;;;;;;5095623;28;19922;-62
2022/08/15 07:00:18;;;;;;;;;;;24.00;77.40;;;;;;5095339;28;19908;-62
2022/08/15 07:02:49;;;;;;;;;;;24.00;77.40;;;;;;5095165;28;19927;-63
2022/08/15 07:05:15;;;;;;;;;;;24.00;77.50;;;;;;5095082;28;19908;-62
2022/08/15 07:07:59;;;;;;;;;;;24.00;77.40;;;;;;5095140;28;19908;-62
2022/08/15 07:10:29;;;;;;;;;;;24.00;77.40;;;;;;5095252;28;19915;-62
2022/08/15 07:13:00;;;;;;;;;;;24.00;77.40;;;;;;5095035;28;20065;-62
2022/08/15 07:15:36;;;;;;;;;;;24.00;77.40;;;;;;5095028;28;20045;-62
2022/08/15 07:18:10;;;;;;;;;;;24.00;77.50;;;;;;5094959;28;19919;-62
2022/08/15 07:20:36;;;;;;;;;;;24.00;77.50;;;;;;5094662;28;19908;-62
2022/08/15 07:23:20;;;;;;;;;;;24.00;77.50;;;;;;5076932;28;19912;-62
2022/08/15 07:25:47;;;;;;;;;;;24.00;77.40;;;;;;5094683;28;19912;-62
2022/08/15 07:28:16;;;;;;;;;;;24.00;77.50;;;;;;5094869;28;19908;-62
2022/08/15 07:30:46;;;;;;;;;;;24.00;77.50;;;;;;5094885;28;19908;-62
2022/08/15 07:33:26;;;;;;;;;;;24.00;77.50;;;;;;5094308;28;19995;-63
2022/08/15 07:35:58;;;;;;;;;;;24.00;77.50;;;;;;5094633;28;19912;-62
2022/08/15 07:38:28;;;;;;;;;;;24.00;77.50;;;;;;5095051;28;19908;-62
2022/08/15 07:41:10;;;;;;;;;;;24.00;77.50;;;;;;5095170;28;19908;-63
2022/08/15 07:43:36;;;;;;;;;;;24.00;77.60;;;;;;5094438;28;19912;-62
2022/08/15 07:46:04;;;;;;;;;;;24.00;77.60;;;;;;5076467;28;19919;-62
2022/08/15 07:48:32;;;;;;;;;;;24.00;77.60;;;;;;5094830;28;19998;-62
2022/08/15 07:51:16;;;;;;;;;;;24.00;77.50;;;;;;5094502;28;20248;-62
2022/08/15 07:53:48;;;;;;;;;;;24.10;77.60;;;;;;5094044;28;19912;-62
2022/08/15 07:56:15;;;;;;;;;;;24.10;77.60;;;;;;5094179;28;19916;-62
2022/08/15 07:58:42;;;;;;;;;;;24.10;77.60;;;;;;5094737;28;19912;-62
2022/08/15 08:01:09;;;;;;;;;;;24.00;77.50;;;;;;5094101;28;20358;-62
2022/08/15 08:03:37;;;;;;;;;;;24.10;77.60;;;;;;5094340;28;19927;-62
2022/08/15 08:06:03;;;;;;;;;;;24.10;77.60;;;;;;5076143;28;19915;-62
2022/08/15 08:08:36;;;;;;;;;;;24.00;77.60;;;;;;5094433;28;19908;-62
2022/08/15 08:11:06;;;;;;;;;;;24.10;77.70;;;;;;5093993;28;19965;-62
2022/08/15 08:13:58;;;;;;;;;;;24.00;77.60;;;;;;5094100;28;19977;-62
2022/08/15 08:16:28;;;;;;;;;;;24.10;77.70;;;;;;5090846;28;19999;-62
2022/08/15 08:18:59;;;;;;;;;;;24.10;77.70;;;;;;5093867;28;20002;-62
2022/08/15 08:21:30;;;;;;;;;;;24.10;77.80;;;;;;5094392;28;19968;-62
2022/08/15 08:23:59;;;;;;;;;;;24.10;77.70;;;;;;5094161;28;19908;-62
2022/08/15 08:26:24;;;;;;;;;;;24.10;77.80;;;;;;5094054;28;19915;-62
2022/08/15 08:28:56;;;;;;;;;;;24.10;77.70;;;;;;5093892;28;20011;-62
2022/08/15 08:31:28;;;;;;;;;;;24.10;77.80;;;;;;5075988;28;19909;-62
2022/08/15 08:34:06;;;;;;;;;;;24.10;77.70;;;;;;5075681;28;19919;-62
2022/08/15 08:36:41;;;;;;;;;;;24.10;77.80;;;;;;5093525;28;19912;-62
2022/08/15 08:39:25;;;;;;;;;;;24.10;77.70;;;;;;5075742;28;19944;-62
2022/08/15 08:41:58;;;;;;;;;;;24.10;77.80;;;;;;5075428;28;19941;-62
2022/08/15 08:44:32;;;;;;;;;;;24.10;77.80;;;;;;5093621;28;19915;-62
2022/08/15 08:47:00;;;;;;;;;;;24.10;77.90;;;;;;5097630;28;19915;-63
2022/08/15 08:49:32;;;;;;;;;;;24.10;77.90;;;;;;5097683;28;20370;-62
2022/08/15 08:51:58;;;;;;;;;;;24.10;77.80;;;;;;5079747;28;19916;-63
2022/08/15 08:54:29;;;;;;;;;;;24.10;77.90;;;;;;5079794;28;19912;-62
2022/08/15 08:56:57;;;;;;;;;;;24.10;77.90;;;;;;5097985;28;19912;-62
2022/08/15 08:59:26;;;;;;;;;;;24.10;77.90;;;;;;5097507;28;19931;-62
2022/08/15 09:02:14;;;;;;;;;;;24.10;77.90;;;;;;5096976;28;19908;-62
2022/08/15 09:04:47;;;;;;;;;;;24.10;77.90;;;;;;5097564;28;20281;-62
2022/08/15 09:07:16;;;;;;;;;;;24.10;77.80;;;;;;5097248;28;19908;-62
2022/08/15 09:09:43;;;;;;;;;;;24.10;77.90;;;;;;5097526;28;20258;-62
2022/08/15 09:14:54;;;;;;;;;;;24.10;77.80;;;;;;5097376;28;19919;-62
2022/08/15 09:17:20;;;;;;;;;;;24.10;77.90;;;;;;5097836;28;19916;-62
2022/08/15 09:19:57;;;;;;;;;;;24.10;77.80;;;;;;5097239;28;19962;-63
2022/08/15 09:22:23;;;;;;;;;;;24.10;77.90;;;;;;5079123;28;20358;-62
2022/08/15 09:24:48;;;;;;;;;;;24.10;77.80;;;;;;5096892;28;19908;-63
2022/08/15 09:27:24;;;;;;;;;;;24.10;77.80;;;;;;5097039;28;19961;-62
2022/08/15 09:29:54;;;;;;;;;;;24.10;77.80;;;;;;5096991;28;20406;-63
2022/08/15 09:32:20;;;;;;;;;;;24.10;77.90;;;;;;5097066;28;20007;-63
2022/08/15 09:35:04;;;;;;;;;;;24.10;77.90;;;;;;5097118;28;20015;-63
2022/08/15 09:37:32;;;;;;;;;;;24.10;77.90;;;;;;5097189;28;20007;-63
2022/08/15 09:40:21;;;;;;;;;;;24.10;77.90;;;;;;5096915;28;19909;-62
2022/08/15 09:42:55;;;;;;;;;;;24.10;77.90;;;;;;5068263;28;19915;-62
2022/08/15 09:45:32;;;;;;;;;;;24.10;77.90;;;;;;5097330;28;19973;-62
2022/08/15 09:48:12;;;;;;;;;;;24.10;78.00;;;;;;5078799;28;19908;-62
2022/08/15 09:51:13;;;;;;;;;;;24.10;77.90;;;;;;5096707;28;20351;-62
2022/08/15 09:53:51;;;;;;;;;;;24.10;77.90;;;;;;5034215;28;20050;-63
2022/08/15 09:56:18;;;;;;;;;;;24.10;77.90;;;;;;5088914;28;19912;-62
2022/08/15 09:58:56;;;;;;;;;;;24.10;77.90;;;;;;5096845;28;19931;-63
2022/08/15 10:01:28;;;;;;;;;;;24.10;78.00;;;;;;5096701;28;19920;-62
2022/08/15 10:03:56;;;;;;;;;;;24.10;77.90;;;;;;5096624;28;20378;-62
2022/08/15 10:06:24;;;;;;;;;;;24.10;77.90;;;;;;5096355;28;19916;-62
2022/08/15 10:08:56;;;;;;;;;;;24.10;78.00;;;;;;5096379;28;19912;-62
2022/08/15 10:11:25;;;;;;;;;;;24.10;77.90;;;;;;5096694;28;20006;-62
2022/08/15 10:14:01;;;;;;;;;;;24.10;78.00;;;;;;5095875;28;19923;-63
2022/08/15 10:16:41;;;;;;;;;;;24.20;78.10;;;;;;5096409;28;19919;-62
2022/08/15 10:19:25;;;;;;;;;;;24.20;78.10;;;;;;5096594;28;20355;-63
2022/08/15 10:21:52;;;;;;;;;;;24.10;78.00;;;;;;5096159;28;19908;-63
2022/08/15 10:24:36;;;;;;;;;;;24.10;78.10;;;;;;5095831;28;19908;-63
2022/08/15 10:27:07;;;;;;;;;;;24.10;78.10;;;;;;5095914;28;19919;-63
2022/08/15 10:29:34;;;;;;;;;;;24.10;78.10;;;;;;5096299;28;19912;-62
2022/08/15 10:32:00;;;;;;;;;;;24.20;78.10;;;;;;5096001;28;19914;-63
2022/08/15 10:34:48;;;;;;;;;;;24.20;78.20;;;;;;5095822;28;19912;-63
2022/08/15 10:37:19;;;;;;;;;;;24.20;78.20;;;;;;5096068;28;19919;-63
2022/08/15 10:40:06;;;;;;;;;;;24.20;78.20;;;;;;5095979;28;19914;-62
2022/08/15 10:42:38;;;;;;;;;;;24.10;78.10;;;;;;5077654;28;20366;-63
2022/08/15 10:45:11;;;;;;;;;;;24.10;78.10;;;;;;5095512;28;19908;-63
2022/08/15 10:47:54;;;;;;;;;;;24.20;78.20;;;;;;5095789;28;19915;-62
2022/08/15 10:50:20;;;;;;;;;;;24.10;78.20;;;;;;5077545;28;20367;-62
2022/08/15 10:52:46;;;;;;;;;;;24.20;78.20;;;;;;5095657;28;20366;-63
2022/08/15 10:55:17;;;;;;;;;;;24.20;78.30;;;;;;5095856;28;19912;-63
2022/08/15 10:57:48;;;;;;;;;;;24.10;78.10;;;;;;5095496;28;20325;-63
2022/08/15 11:00:17;;;;;;;;;;;24.10;78.70;;;;;;5095436;28;19908;-63
2022/08/15 11:02:43;;;;;;;;;;;24.10;78.20;;;;;;5095129;28;19965;-63
2022/08/15 11:05:12;;;;;;;;;;;24.20;78.30;;;;;;5095390;28;19908;-63
2022/08/15 11:07:40;;;;;;;;;;;24.20;78.30;;;;;;5094611;28;19915;-63
2022/08/15 11:10:13;;;;;;;;;;;24.20;78.30;;;;;;5095207;28;19908;-62
2022/08/15 11:12:42;;;;;;;;;;;24.20;78.30;;;;;;5095604;28;19956;-63
2022/08/15 11:15:19;;;;;;;;;;;24.20;78.30;;;;;;5095018;28;19955;-62
2022/08/15 11:17:46;;;;;;;;;;;24.20;78.30;;;;;;5094944;28;19915;-63
2022/08/15 11:20:16;;;;;;;;;;;24.20;78.40;;;;;;5095222;28;20311;-62
2022/08/15 11:22:53;;;;;;;;;;;24.20;78.30;;;;;;5094852;28;19962;-62
2022/08/15 11:25:21;;;;;;;;;;;24.20;78.30;;;;;;5094814;28;19909;-63
2022/08/15 11:28:07;;;;;;;;;;;24.20;78.30;;;;;;5095006;28;19908;-63
2022/08/15 11:30:35;;;;;;;;;;;24.20;78.30;;;;;;5083778;28;20339;-63
2022/08/15 11:33:19;;;;;;;;;;;24.20;78.30;;;;;;5076634;28;19939;-63
2022/08/15 11:35:45;;;;;;;;;;;24.20;78.30;;;;;;5076627;28;19912;-63
2022/08/15 11:38:12;;;;;;;;;;;24.20;78.30;;;;;;5076709;28;20008;-63
2022/08/15 11:40:40;;;;;;;;;;;24.20;78.30;;;;;;5094717;28;19908;-63
2022/08/15 11:43:06;;;;;;;;;;;24.20;78.30;;;;;;5094355;28;20374;-63
2022/08/15 11:45:33;;;;;;;;;;;24.20;78.30;;;;;;5094706;28;19908;-63
2022/08/15 11:47:59;;;;;;;;;;;24.20;78.20;;;;;;5076512;28;19915;-63
2022/08/15 11:50:30;;;;;;;;;;;24.20;78.20;;;;;;5094296;28;19908;-63
2022/08/15 11:52:58;;;;;;;;;;;24.20;78.20;;;;;;5094666;28;20363;-63
2022/08/15 11:55:42;;;;;;;;;;;24.20;78.20;;;;;;5094402;28;19913;-63
2022/08/15 11:58:13;;;;;;;;;;;24.20;78.20;;;;;;5094565;28;20271;-63
2022/08/15 12:00:44;;;;;;;;;;;24.20;78.20;;;;;;5076350;28;20014;-63
2022/08/15 12:03:28;;;;;;;;;;;24.20;78.30;;;;;;5093896;28;19924;-63
2022/08/15 12:05:55;;;;;;;;;;;24.20;78.20;;;;;;5076075;28;19999;-63
2022/08/15 12:08:27;;;;;;;;;;;24.20;78.20;;;;;;5094145;28;19959;-62
2022/08/15 12:11:06;;;;;;;;;;;24.20;78.20;;;;;;5094041;28;20410;-63
2022/08/15 12:13:32;;;;;;;;;;;24.20;78.20;;;;;;5094087;28;19965;-62
2022/08/15 12:15:58;;;;;;;;;;;24.20;78.20;;;;;;5075636;28;19912;-62
2022/08/15 12:18:24;;;;;;;;;;;24.20;78.10;;;;;;5093756;28;19908;-63
2022/08/15 12:20:55;;;;;;;;;;;24.20;78.20;;;;;;5093155;28;20367;-62
2022/08/15 12:23:23;;;;;;;;;;;24.20;78.20;;;;;;5094096;28;19915;-63
2022/08/15 12:25:50;;;;;;;;;;;24.20;78.10;;;;;;5075856;28;19971;-62
2022/08/15 12:28:15;;;;;;;;;;;24.30;78.20;;;;;;5093981;28;19908;-63
2022/08/15 12:30:41;;;;;;;;;;;24.20;78.10;;;;;;5093571;28;19915;-62
2022/08/15 12:33:08;;;;;;;;;;;24.20;78.20;;;;;;5093386;28;20414;-62
2022/08/15 12:35:34;;;;;;;;;;;24.30;78.20;;;;;;5075781;28;19916;-62
2022/08/15 12:38:00;;;;;;;;;;;24.20;78.20;;;;;;5094167;28;20274;-62
2022/08/15 12:40:26;;;;;;;;;;;24.20;78.20;;;;;;5093985;28;19914;-62
2022/08/15 12:42:51;;;;;;;;;;;24.20;78.20;;;;;;5075653;28;19934;-62
2022/08/15 12:45:18;;;;;;;;;;;24.20;78.20;;;;;;5093885;28;20275;-62
2022/08/15 12:47:44;;;;;;;;;;;24.20;78.80;;;;;;5094325;28;19909;-62
2022/08/15 12:50:10;;;;;;;;;;;24.20;78.20;;;;;;5093925;28;20259;-62
2022/08/15 12:52:36;;;;;;;;;;;24.20;78.20;;;;;;5093434;28;19908;-62
2022/08/15 12:55:02;;;;;;;;;;;24.20;78.20;;;;;;5075423;28;19924;-62
2022/08/15 12:57:28;;;;;;;;;;;24.20;78.20;;;;;;5093553;28;19915;-62
2022/08/15 12:59:53;;;;;;;;;;;24.20;78.20;;;;;;5093675;28;20002;-62
2022/08/15 13:02:19;;;;;;;;;;;24.20;78.20;;;;;;5093144;28;19931;-62
2022/08/15 13:04:47;;;;;;;;;;;24.30;78.30;;;;;;5075294;28;19999;-62
2022/08/15 13:07:13;;;;;;;;;;;24.30;78.20;;;;;;5075362;28;19938;-63
2022/08/15 13:09:39;;;;;;;;;;;24.30;78.20;;;;;;5093557;28;20078;-62
2022/08/15 13:12:05;;;;;;;;;;;24.20;78.20;;;;;;5093447;28;20394;-62
2022/08/15 13:14:30;;;;;;;;;;;24.30;78.20;;;;;;5093426;28;19916;-62
2022/08/15 13:16:56;;;;;;;;;;;24.30;78.20;;;;;;5093441;28;19912;-62
2022/08/15 13:19:27;;;;;;;;;;;24.20;78.20;;;;;;5093463;28;19908;-62
2022/08/15 13:24:37;;;;;;;;;;;24.30;78.20;;;;;;5093585;28;20308;-62
2022/08/15 13:27:03;;;;;;;;;;;24.30;78.10;;;;;;5093141;28;19908;-63
2022/08/15 13:29:29;;;;;;;;;;;24.30;78.20;;;;;;5093095;28;20008;-62
2022/08/15 13:31:55;;;;;;;;;;;24.30;78.20;;;;;;5095451;28;20386;-62
2022/08/15 13:34:20;;;;;;;;;;;24.20;78.10;;;;;;5097367;28;19963;-62
2022/08/15 13:36:47;;;;;;;;;;;24.30;78.20;;;;;;5097072;28;19912;-62
2022/08/15 13:39:14;;;;;;;;;;;24.20;78.10;;;;;;5079016;28;19912;-62
2022/08/15 13:41:40;;;;;;;;;;;24.30;78.20;;;;;;5096851;28;19909;-62
2022/08/15 13:44:06;;;;;;;;;;;24.30;78.30;;;;;;5097036;28;19947;-62
2022/08/15 13:46:32;;;;;;;;;;;24.30;78.20;;;;;;5096981;28;19908;-62
2022/08/15 13:48:58;;;;;;;;;;;24.30;78.20;;;;;;5096801;28;19908;-62
2022/08/15 13:51:36;;;;;;;;;;;24.30;78.20;;;;;;5096970;28;19908;-62
2022/08/15 13:54:02;;;;;;;;;;;24.30;78.20;;;;;;5096802;28;20312;-62
2022/08/15 13:56:29;;;;;;;;;;;24.20;78.10;;;;;;5096421;28;19916;-63
2022/08/15 13:58:55;;;;;;;;;;;24.30;78.20;;;;;;5096707;28;19921;-62
2022/08/15 14:01:22;;;;;;;;;;;24.30;78.20;;;;;;5096439;28;19915;-62
2022/08/15 14:03:52;;;;;;;;;;;24.30;78.20;;;;;;5096302;28;19920;-62
2022/08/15 14:06:19;;;;;;;;;;;24.30;78.10;;;;;;5096686;28;19908;-62
2022/08/15 14:08:45;;;;;;;;;;;24.30;78.20;;;;;;5096746;28;19908;-62
2022/08/15 14:11:11;;;;;;;;;;;24.30;78.20;;;;;;5096218;28;20381;-62
2022/08/15 14:13:36;;;;;;;;;;;24.30;78.20;;;;;;5096202;28;19919;-62
2022/08/15 14:16:03;;;;;;;;;;;24.30;78.20;;;;;;5096148;28;19912;-62
2022/08/15 14:18:29;;;;;;;;;;;24.30;78.20;;;;;;5096315;28;19927;-62
2022/08/15 14:20:55;;;;;;;;;;;24.20;78.10;;;;;;5078127;28;19909;-62
2022/08/15 14:23:21;;;;;;;;;;;24.30;78.20;;;;;;5096326;28;19908;-62
2022/08/15 14:25:46;;;;;;;;;;;24.30;78.10;;;;;;5096158;28;19915;-61
2022/08/15 14:28:12;;;;;;;;;;;24.30;78.20;;;;;;5078105;28;19915;-61
2022/08/15 14:30:39;;;;;;;;;;;24.30;78.10;;;;;;5077988;28;19912;-62
2022/08/15 14:33:07;;;;;;;;;;;24.30;78.10;;;;;;5095646;28;20007;-62